Twizzle — 2DKS5 — position and weather

sailwx.info

Track history (hours):
 
Tides and Currents Weather Stations Pressure Air Temp Water Temp Dewpoint Dewpoint Depression Visibility Wind Speed Wind Dir Waves Ship Positions

Twizzle

Last reported at 2016-Feb-08 09:33 UTC. Time now 2016-Feb-09 22:37 UTC.
Position N 17°35' W 062°36'.

Length 58 m; draft 3.8 m.

Type: Sailing vessel. MMSI: 235079813.

Date/timePositionNaut miles runAvg speedWind from/ knotsBaromVisibWave heightAir tempDewpointWater temp
2016-Feb-08 09:33N 17°35' W 062°36'1111.5
2016-Feb-08 08:33N 17°28' W 062°27'1111.4
2016-Feb-08 07:34N 17°20' W 062°18'1111.3
2016-Feb-08 06:34N 17°13' W 062°09'1111.4
2016-Feb-08 05:34N 17°05' W 062°00'1010.4
2016-Feb-08 04:33N 17°00' W 061°51'1 0.7
2016-Feb-08 03:31N 17°01' W 061°50'0 0.0
2016-Feb-08 02:31N 17°01' W 061°50'0 0.0
2016-Feb-08 00:16N 17°01' W 061°50'0 0.0
2016-Feb-07 23:31N 17°01' W 061°50'0 0.0
2016-Feb-07 22:31N 17°01' W 061°50'0 0.0
2016-Feb-07 21:31N 17°01' W 061°50'  
2016-Feb-03 12:32N 17°00' W 061°46'0 0.0
2016-Feb-03 11:32N 17°00' W 061°46'0 0.0
2016-Feb-03 10:32N 17°00' W 061°46'0 0.0
2016-Feb-03 09:32N 17°00' W 061°46'0 0.0
2016-Feb-03 08:32N 17°00' W 061°46'0 0.0
2016-Feb-03 07:32N 17°00' W 061°46'0 0.0
2016-Feb-03 06:32N 17°00' W 061°46'0 0.0
2016-Feb-03 05:32N 17°00' W 061°46'0 0.0
2016-Feb-03 04:32N 17°00' W 061°46'0 0.0
2016-Feb-03 03:32N 17°00' W 061°46'0 0.0
2016-Feb-03 02:32N 17°00' W 061°46'0 0.0
2016-Feb-03 01:32N 17°00' W 061°46'0 0.0
2016-Feb-03 00:32N 17°00' W 061°46'0 0.0
2016-Feb-02 23:32N 17°00' W 061°46'0 0.0
2016-Feb-02 22:32N 17°00' W 061°46'0 0.0
2016-Feb-02 21:32N 17°00' W 061°46'0 0.0
2016-Feb-02 20:32N 17°00' W 061°46'0 0.0
2016-Feb-02 19:32N 17°00' W 061°46'0 0.0
2016-Feb-02 18:29N 17°00' W 061°46'0 0.0
2016-Feb-02 17:32N 17°00' W 061°46'0 0.0
2016-Feb-02 16:32N 17°00' W 061°46'0 0.0
2016-Feb-02 15:33N 17°00' W 061°46'7 6.8
2016-Feb-02 14:33N 17°03' W 061°39'2 2.1
2016-Feb-02 13:32N 17°05' W 061°41'0 0.0
2016-Feb-02 12:32N 17°05' W 061°41'0 0.0
2016-Feb-02 11:32N 17°05' W 061°41'0 0.0
2016-Feb-02 10:32N 17°05' W 061°41'0 0.0
2016-Feb-02 09:32N 17°05' W 061°41'0 0.0
2016-Feb-02 08:32N 17°05' W 061°41'0 0.0
2016-Feb-02 07:32N 17°05' W 061°41'0 0.0
2016-Feb-02 06:32N 17°05' W 061°41'0 0.0
2016-Feb-02 05:32N 17°05' W 061°41'0 0.0
2016-Feb-02 04:32N 17°05' W 061°41'0 0.0
2016-Feb-02 03:32N 17°05' W 061°41'0 0.0
2016-Feb-02 02:32N 17°05' W 061°41'0 0.0
2016-Feb-02 01:32N 17°05' W 061°41'0 0.0
2016-Feb-02 00:32N 17°05' W 061°41'0 0.0
2016-Feb-01 23:32N 17°05' W 061°41'0 0.0
2016-Feb-01 22:32N 17°05' W 061°41'0 0.0
2016-Feb-01 21:32N 17°05' W 061°41'0 0.0
2016-Feb-01 20:29N 17°05' W 061°41'0 0.0
2016-Feb-01 19:32N 17°05' W 061°41'0 0.0
2016-Feb-01 18:32N 17°05' W 061°41'0 0.0
2016-Feb-01 17:32N 17°05' W 061°41'0 0.0
2016-Feb-01 16:32N 17°05' W 061°41'8 3.9
2016-Feb-01 14:22N 16°57' W 061°43'5 6.5
2016-Feb-01 13:33N 17°01' W 061°46'0 0.1
2016-Feb-01 11:19N 17°01' W 061°46'0 0.0
2016-Feb-01 10:31N 17°01' W 061°46'0 0.0
2016-Feb-01 09:28N 17°01' W 061°46'0 0.0
2016-Feb-01 08:31N 17°01' W 061°46'0 0.0
2016-Feb-01 07:31N 17°01' W 061°46'0 0.0
2016-Feb-01 05:31N 17°01' W 061°46'0 0.0
2016-Feb-01 04:31N 17°01' W 061°46'0 0.0
2016-Feb-01 03:31N 17°01' W 061°46'0 0.0
2016-Feb-01 02:31N 17°01' W 061°46'0 0.0
2016-Feb-01 01:31N 17°01' W 061°46'0 0.0
2016-Feb-01 00:31N 17°01' W 061°46'0 0.0
2016-Jan-31 23:31N 17°01' W 061°46'0 0.0
2016-Jan-31 03:04N 17°01' W 061°46'0 0.0
2016-Jan-31 02:31N 17°01' W 061°46'0 0.0
2016-Jan-31 01:31N 17°01' W 061°46'0 0.0
2016-Jan-31 00:25N 17°01' W 061°46'0 0.0
2016-Jan-30 17:10N 17°01' W 061°46'  
Track history (hours):
 
Tides and Currents Weather Stations Pressure Air Temp Water Temp Dewpoint Dewpoint Depression Visibility Wind Speed Wind Dir Waves Ship Positions

Twizzle

Last reported at 2016-Feb-08 09:33 UTC. Time now 2016-Feb-09 22:37 UTC.
Position N 17°35' W 062°36'.

Length 58 m; draft 3.8 m.

Type: Sailing vessel. MMSI: 235079813.

Date/timePositionNaut miles runAvg speedWind from/ knotsBaromVisibWave heightAir tempDewpointWater temp
2016-Feb-08 09:33N 17°35' W 062°36'1111.5
2016-Feb-08 08:33N 17°28' W 062°27'1111.4
2016-Feb-08 07:34N 17°20' W 062°18'1111.3
2016-Feb-08 06:34N 17°13' W 062°09'1111.4
2016-Feb-08 05:34N 17°05' W 062°00'1010.4
2016-Feb-08 04:33N 17°00' W 061°51'1 0.7
2016-Feb-08 03:31N 17°01' W 061°50'0 0.0
2016-Feb-08 02:31N 17°01' W 061°50'0 0.0
2016-Feb-08 00:16N 17°01' W 061°50'0 0.0
2016-Feb-07 23:31N 17°01' W 061°50'0 0.0
2016-Feb-07 22:31N 17°01' W 061°50'0 0.0
2016-Feb-07 21:31N 17°01' W 061°50'  
2016-Feb-03 12:32N 17°00' W 061°46'0 0.0
2016-Feb-03 11:32N 17°00' W 061°46'0 0.0
2016-Feb-03 10:32N 17°00' W 061°46'0 0.0
2016-Feb-03 09:32N 17°00' W 061°46'0 0.0
2016-Feb-03 08:32N 17°00' W 061°46'0 0.0
2016-Feb-03 07:32N 17°00' W 061°46'0 0.0
2016-Feb-03 06:32N 17°00' W 061°46'0 0.0
2016-Feb-03 05:32N 17°00' W 061°46'0 0.0
2016-Feb-03 04:32N 17°00' W 061°46'0 0.0
2016-Feb-03 03:32N 17°00' W 061°46'0 0.0
2016-Feb-03 02:32N 17°00' W 061°46'0 0.0
2016-Feb-03 01:32N 17°00' W 061°46'0 0.0
2016-Feb-03 00:32N 17°00' W 061°46'0 0.0
2016-Feb-02 23:32N 17°00' W 061°46'0 0.0
2016-Feb-02 22:32N 17°00' W 061°46'0 0.0
2016-Feb-02 21:32N 17°00' W 061°46'0 0.0
2016-Feb-02 20:32N 17°00' W 061°46'0 0.0
2016-Feb-02 19:32N 17°00' W 061°46'0 0.0
2016-Feb-02 18:29N 17°00' W 061°46'0 0.0
2016-Feb-02 17:32N 17°00' W 061°46'0 0.0
2016-Feb-02 16:32N 17°00' W 061°46'0 0.0
2016-Feb-02 15:33N 17°00' W 061°46'7 6.8
2016-Feb-02 14:33N 17°03' W 061°39'2 2.1
2016-Feb-02 13:32N 17°05' W 061°41'0 0.0
2016-Feb-02 12:32N 17°05' W 061°41'0 0.0
2016-Feb-02 11:32N 17°05' W 061°41'0 0.0
2016-Feb-02 10:32N 17°05' W 061°41'0 0.0
2016-Feb-02 09:32N 17°05' W 061°41'0 0.0
2016-Feb-02 08:32N 17°05' W 061°41'0 0.0
2016-Feb-02 07:32N 17°05' W 061°41'0 0.0
2016-Feb-02 06:32N 17°05' W 061°41'0 0.0
2016-Feb-02 05:32N 17°05' W 061°41'0 0.0
2016-Feb-02 04:32N 17°05' W 061°41'0 0.0
2016-Feb-02 03:32N 17°05' W 061°41'0 0.0
2016-Feb-02 02:32N 17°05' W 061°41'0 0.0
2016-Feb-02 01:32N 17°05' W 061°41'0 0.0
2016-Feb-02 00:32N 17°05' W 061°41'0 0.0
2016-Feb-01 23:32N 17°05' W 061°41'0 0.0
2016-Feb-01 22:32N 17°05' W 061°41'0 0.0
2016-Feb-01 21:32N 17°05' W 061°41'0 0.0
2016-Feb-01 20:29N 17°05' W 061°41'0 0.0
2016-Feb-01 19:32N 17°05' W 061°41'0 0.0
2016-Feb-01 18:32N 17°05' W 061°41'0 0.0
2016-Feb-01 17:32N 17°05' W 061°41'0 0.0
2016-Feb-01 16:32N 17°05' W 061°41'8 3.9
2016-Feb-01 14:22N 16°57' W 061°43'5 6.5
2016-Feb-01 13:33N 17°01' W 061°46'0 0.1
2016-Feb-01 11:19N 17°01' W 061°46'0 0.0
2016-Feb-01 10:31N 17°01' W 061°46'0 0.0
2016-Feb-01 09:28N 17°01' W 061°46'0 0.0
2016-Feb-01 08:31N 17°01' W 061°46'0 0.0
2016-Feb-01 07:31N 17°01' W 061°46'0 0.0
2016-Feb-01 05:31N 17°01' W 061°46'0 0.0
2016-Feb-01 04:31N 17°01' W 061°46'0 0.0
2016-Feb-01 03:31N 17°01' W 061°46'0 0.0
2016-Feb-01 02:31N 17°01' W 061°46'0 0.0
2016-Feb-01 01:31N 17°01' W 061°46'0 0.0
2016-Feb-01 00:31N 17°01' W 061°46'0 0.0
2016-Jan-31 23:31N 17°01' W 061°46'0 0.0
2016-Jan-31 03:04N 17°01' W 061°46'0 0.0
2016-Jan-31 02:31N 17°01' W 061°46'0 0.0
2016-Jan-31 01:31N 17°01' W 061°46'0 0.0
2016-Jan-31 00:25N 17°01' W 061°46'0 0.0
2016-Jan-30 17:10N 17°01' W 061°46'  

Dump ship's entire track history